CheckWX is a tool to help pilots better visualize weather data.  It is not intended as a substitute for an official pre-flight weather briefing.

03:18:13 UTC

KSMP METAR
Stampede Pass Airport
Washington, USA
Current

22 mins ago

KSMP 270256Z AUTO 00000KT 10SM BKN060 11/06 A2996 RMK AO2 SLP155 T01110061 53007
Observed
May-27 @ 02:56 UTC
Visibility
10 SM
Flight Rules
VFR
Cloud Levels
  • Broken at 6,000' AGL
Temperature
11°C / 52°F
Dewpoint
C / 43°F
Humidity
72%
Altimeter
29.96" Hg
Pressure
1014.52 hPa
Previous

1 hour ago

KSMP 270156Z AUTO 10SM FEW035 11/07 A2994 RMK AO2 SLP150 T01110067
Observed
May-27 @ 01:56 UTC
Visibility
10 SM
Flight Rules
VFR
Cloud Levels
  • Few at 3,500' AGL
Temperature
11°C / 52°F
Dewpoint
C / 45°F
Humidity
77%
Altimeter
29.94" Hg
Pressure
1013.92 hPa
Previous

2 hours ago

KSMP 270104Z AUTO 00000KT 10SM SCT029 BKN039 OVC049 11/07 A2994 RMK AO2 T01060067
Observed
May-27 @ 01:04 UTC
Visibility
10 SM
Flight Rules
VFR
Cloud Levels
  • Scattered at 2,900' AGL
  • Broken at 3,900' AGL
  • Overcast at 4,900' AGL
Temperature
11°C / 52°F
Dewpoint
C / 45°F
Humidity
77%
Altimeter
29.94" Hg
Pressure
1013.92 hPa